createdAt,value
2018-09-21T00:00:46.711Z,54.51
2018-09-21T00:03:19.147Z,55.88
2018-09-21T00:05:49.012Z,54.82
2018-09-21T00:08:20.931Z,55.27
2018-09-21T00:10:50.807Z,55.20
2018-09-21T00:13:20.633Z,55.29
2018-09-21T00:15:50.686Z,53.99
2018-09-21T00:18:20.587Z,55.58
2018-09-21T00:20:50.653Z,54.98
2018-09-21T00:23:20.588Z,54.66
2018-09-21T00:25:50.693Z,54.49
2018-09-21T00:28:20.911Z,56.00
2018-09-21T00:30:50.983Z,54.54
2018-09-21T00:33:21.019Z,55.26
2018-09-21T00:35:51.161Z,54.88
2018-09-21T00:38:21.098Z,54.46
2018-09-21T00:40:51.001Z,54.55
2018-09-21T00:43:21.059Z,55.07
2018-09-21T00:45:51.086Z,54.36
2018-09-21T00:48:21.140Z,54.61
2018-09-21T00:50:51.358Z,54.72
2018-09-21T00:53:21.199Z,54.77
2018-09-21T00:55:51.378Z,55.59
2018-09-21T00:58:21.243Z,54.83
2018-09-21T01:00:51.608Z,54.98
2018-09-21T01:03:21.659Z,54.77
2018-09-21T01:05:52.017Z,55.19
2018-09-21T01:08:22.183Z,54.83
2018-09-21T01:10:52.364Z,55.92
2018-09-21T01:13:22.411Z,55.19
2018-09-21T01:15:52.288Z,55.85
2018-09-21T01:18:22.266Z,55.26
2018-09-21T01:20:52.404Z,55.29
2018-09-21T01:23:22.471Z,55.41
2018-09-21T01:25:52.288Z,55.41
2018-09-21T01:28:22.180Z,56.27
2018-09-21T01:30:52.989Z,55.17
2018-09-21T01:33:23.188Z,55.50
2018-09-21T01:35:53.344Z,55.24
2018-09-21T01:38:23.399Z,55.91
2018-09-21T01:40:54.572Z,56.55
2018-09-21T01:43:24.616Z,55.47
2018-09-21T01:45:54.468Z,56.77
2018-09-21T01:48:24.348Z,55.93
2018-09-21T01:50:54.190Z,55.78
2018-09-21T01:53:24.082Z,55.92
2018-09-21T01:55:54.007Z,56.55
2018-09-21T01:58:24.128Z,56.54
2018-09-21T02:00:54.197Z,56.49
2018-09-21T02:03:24.125Z,56.24
2018-09-21T02:05:53.965Z,57.22
2018-09-21T02:08:23.952Z,56.34
2018-09-21T02:10:53.979Z,57.52
2018-09-21T02:13:24.058Z,57.19
2018-09-21T02:15:54.284Z,56.59
2018-09-21T02:18:24.320Z,57.35
2018-09-21T02:20:54.118Z,57.48
2018-09-21T02:23:24.360Z,57.23
2018-09-21T02:25:54.674Z,57.53
2018-09-21T02:28:24.855Z,57.68
2018-09-21T02:30:54.867Z,57.04
2018-09-21T02:33:25.456Z,56.73
2018-09-21T02:35:55.446Z,56.53
2018-09-21T02:38:25.826Z,57.03
2018-09-21T02:40:56.378Z,56.88
2018-09-21T02:43:27.092Z,56.55
2018-09-21T02:45:56.932Z,57.36
2018-09-21T02:48:26.976Z,56.28
2018-09-21T02:50:57.144Z,56.78
2018-09-21T02:53:27.108Z,56.89
2018-09-21T02:55:57.149Z,57.39
2018-09-21T02:58:27.249Z,56.96
2018-09-21T03:00:57.376Z,56.27
2018-09-21T03:03:27.247Z,56.12
2018-09-21T03:05:57.182Z,56.33
2018-09-21T03:08:27.196Z,56.24
2018-09-21T03:10:57.502Z,56.79
2018-09-21T03:13:27.992Z,56.33
2018-09-21T03:15:57.876Z,57.21
2018-09-21T03:18:28.154Z,55.95
2018-09-21T03:20:58.035Z,55.79
2018-09-21T03:23:27.920Z,56.04
2018-09-21T03:25:57.856Z,55.94
2018-09-21T03:28:27.879Z,55.50
2018-09-21T03:30:57.949Z,56.24
2018-09-21T03:33:27.803Z,55.50
2018-09-21T03:35:57.716Z,56.13
2018-09-21T03:38:27.608Z,55.02
2018-09-21T03:40:57.432Z,55.86
2018-09-21T03:43:28.216Z,54.86
2018-09-21T03:45:58.041Z,55.41
2018-09-21T03:48:28.122Z,55.06
2018-09-21T03:50:58.176Z,55.03
2018-09-21T03:53:28.456Z,54.81
2018-09-21T03:55:58.439Z,55.06
2018-09-21T03:58:28.419Z,55.31
2018-09-21T04:00:59.034Z,55.53
2018-09-21T04:03:29.020Z,54.91
2018-09-21T04:05:59.357Z,54.72
2018-09-21T04:08:29.356Z,54.72
2018-09-21T04:10:59.295Z,55.32
2018-09-21T04:13:29.509Z,55.52
2018-09-21T04:15:59.547Z,55.85
2018-09-21T04:18:29.517Z,54.76
2018-09-21T04:20:59.551Z,55.69
2018-09-21T04:23:29.915Z,54.90
2018-09-21T04:26:00.162Z,55.01
2018-09-21T04:28:30.301Z,55.60
2018-09-21T04:31:00.925Z,54.80
2018-09-21T04:33:31.051Z,54.82
2018-09-21T04:36:01.017Z,55.09
2018-09-21T04:38:31.001Z,54.83
2018-09-21T04:41:01.022Z,56.02
2018-09-21T04:43:31.316Z,55.98
2018-09-21T04:46:01.381Z,56.11
2018-09-21T04:48:31.354Z,56.06
2018-09-21T04:51:01.244Z,55.32
2018-09-21T04:53:31.095Z,55.93
2018-09-21T04:56:01.062Z,55.92
2018-09-21T04:58:31.706Z,56.24
2018-09-21T05:01:01.815Z,55.65
2018-09-21T05:03:31.751Z,56.13
2018-09-21T05:06:01.616Z,55.40
2018-09-21T05:08:31.635Z,55.62
2018-09-21T05:11:01.542Z,55.78
2018-09-21T05:13:32.517Z,56.50
2018-09-21T05:16:02.503Z,56.28
2018-09-21T05:18:32.667Z,56.35
2018-09-21T05:21:02.772Z,56.40
2018-09-21T05:23:32.916Z,56.23
2018-09-21T05:26:03.114Z,56.55
2018-09-21T05:28:33.191Z,56.43
2018-09-21T05:31:03.096Z,55.86
2018-09-21T05:33:33.072Z,56.73
2018-09-21T05:36:02.980Z,56.48
2018-09-21T05:38:33.103Z,56.64
2018-09-21T05:41:03.062Z,57.07
2018-09-21T05:43:33.102Z,57.34
2018-09-21T05:46:03.041Z,56.29
2018-09-21T05:48:32.889Z,57.58
2018-09-21T05:51:02.883Z,56.59
2018-09-21T05:53:33.328Z,56.83
2018-09-21T05:56:03.162Z,57.09
2018-09-21T05:58:33.130Z,57.49
2018-09-21T06:01:02.992Z,58.16
2018-09-21T06:03:33.161Z,57.62
2018-09-21T06:06:03.097Z,57.38
2018-09-21T06:08:32.923Z,57.33
2018-09-21T06:11:03.049Z,57.59
2018-09-21T06:13:32.993Z,57.95
2018-09-21T06:16:02.835Z,58.28
2018-09-21T06:18:32.731Z,58.23
2018-09-21T06:21:02.761Z,58.54
2018-09-21T06:23:32.935Z,59.32
2018-09-21T06:26:02.764Z,58.29
2018-09-21T06:28:33.041Z,57.77
2018-09-21T06:31:02.978Z,57.58
2018-09-21T06:33:32.886Z,57.85
2018-09-21T06:36:02.969Z,57.88
2018-09-21T06:38:33.188Z,57.37
2018-09-21T06:41:03.013Z,57.66
2018-09-21T06:43:32.856Z,57.72
2018-09-21T06:46:03.023Z,58.15
2018-09-21T06:48:33.053Z,57.13
2018-09-21T06:51:03.099Z,57.67
2018-09-21T06:53:33.025Z,57.08
2018-09-21T06:56:02.918Z,57.55
2018-09-21T06:58:32.964Z,57.71
2018-09-21T07:01:02.786Z,57.52
2018-09-21T07:03:32.991Z,56.92
2018-09-21T07:06:03.336Z,57.09
2018-09-21T07:08:33.331Z,57.08
2018-09-21T07:11:03.341Z,57.73
2018-09-21T07:13:33.738Z,56.62
2018-09-21T07:16:03.782Z,56.66
2018-09-21T07:18:33.867Z,56.83
2018-09-21T07:21:04.088Z,56.48
2018-09-21T07:23:34.148Z,56.50
2018-09-21T07:26:04.116Z,56.90
2018-09-21T07:28:34.259Z,56.34
2018-09-21T07:31:04.311Z,56.47
2018-09-21T07:33:34.273Z,56.46
2018-09-21T07:36:04.490Z,56.48
2018-09-21T07:38:34.465Z,56.40
2018-09-21T07:41:04.364Z,55.49
2018-09-21T07:43:34.301Z,56.02
2018-09-21T07:46:04.265Z,55.30
2018-09-21T07:48:34.128Z,55.81
2018-09-21T07:51:05.433Z,54.76
2018-09-21T07:53:36.342Z,55.33
2018-09-21T07:56:06.206Z,55.37
2018-09-21T07:58:36.173Z,55.36
2018-09-21T08:01:06.104Z,56.02
2018-09-21T08:03:37.039Z,57.11
2018-09-21T08:06:07.364Z,56.64
2018-09-21T08:08:37.264Z,57.35
2018-09-21T08:11:07.219Z,58.01
2018-09-21T08:13:37.976Z,59.09
2018-09-21T08:18:48.847Z,57.87
2018-09-21T08:21:18.706Z,59.40
2018-09-21T08:23:49.228Z,57.53
2018-09-21T08:26:20.890Z,58.30
2018-09-21T08:28:51.317Z,58.03
2018-09-21T08:31:21.719Z,58.51
2018-09-21T08:33:53.795Z,60.12
2018-09-21T08:36:24.094Z,58.78
2018-09-21T08:38:56.211Z,58.64
2018-09-21T08:41:26.585Z,60.33
2018-09-21T08:43:56.625Z,60.52
2018-09-21T08:46:26.507Z,61.40
2018-09-21T08:48:56.612Z,61.35
2018-09-21T08:51:26.543Z,63.47
2018-09-21T08:53:56.875Z,62.89
2018-09-21T08:56:26.809Z,67.63
2018-09-21T08:58:57.406Z,67.88
2018-09-21T09:01:27.262Z,69.87
2018-09-21T09:03:57.121Z,71.62
2018-09-21T09:06:27.240Z,72.35
2018-09-21T09:08:57.444Z,72.45
2018-09-21T09:11:27.374Z,78.00
2018-09-21T09:13:58.752Z,75.34
2018-09-21T09:16:30.175Z,72.64
2018-09-21T09:19:00.289Z,73.17
2018-09-21T09:21:31.103Z,67.74
2018-09-21T09:24:01.013Z,67.63
2018-09-21T09:26:31.090Z,69.39
2018-09-21T09:29:01.219Z,67.05
2018-09-21T09:31:31.346Z,69.47
2018-09-21T09:34:01.492Z,70.51
2018-09-21T09:36:31.344Z,67.15
2018-09-21T09:39:01.418Z,68.86
2018-09-21T09:41:31.744Z,69.43
2018-09-21T09:44:01.565Z,69.65
2018-09-21T09:46:31.740Z,69.46
2018-09-21T09:49:01.954Z,70.73
2018-09-21T09:51:31.748Z,70.58
2018-09-21T09:54:01.640Z,69.34
2018-09-21T09:56:31.732Z,68.79
2018-09-21T09:59:01.687Z,66.78
2018-09-21T10:01:31.741Z,68.20
2018-09-21T10:04:01.960Z,70.17
2018-09-21T10:06:31.771Z,69.81
2018-09-21T10:09:01.684Z,70.68
2018-09-21T10:11:31.739Z,71.28
2018-09-21T10:14:02.045Z,70.12
2018-09-21T10:16:32.142Z,69.30
2018-09-21T10:19:02.156Z,67.88
2018-09-21T10:21:32.000Z,69.52
2018-09-21T10:24:02.079Z,72.85
2018-09-21T10:26:32.015Z,70.66
2018-09-21T10:29:02.211Z,71.07
2018-09-21T10:31:32.046Z,69.40
2018-09-21T10:34:02.237Z,69.80
2018-09-21T10:36:32.371Z,66.77
2018-09-21T10:39:02.481Z,70.04
2018-09-21T10:41:32.346Z,68.87
2018-09-21T10:44:03.598Z,72.22
2018-09-21T10:46:33.742Z,74.23
2018-09-21T10:49:03.822Z,70.26
2018-09-21T10:51:34.573Z,72.66
2018-09-21T10:54:04.688Z,70.98
2018-09-21T10:56:34.612Z,71.88
2018-09-21T10:59:04.902Z,70.59
2018-09-21T11:01:34.944Z,70.05
2018-09-21T11:04:05.649Z,69.06
2018-09-21T11:06:35.821Z,69.80
2018-09-21T11:09:09.351Z,69.09
2018-09-21T11:11:39.696Z,70.33
2018-09-21T11:14:09.604Z,70.30
2018-09-21T11:16:39.732Z,69.36
2018-09-21T11:19:09.803Z,69.62
2018-09-21T11:21:39.995Z,70.69
2018-09-21T11:24:10.071Z,72.90
2018-09-21T11:26:40.108Z,70.21
2018-09-21T11:29:10.156Z,71.81
2018-09-21T11:31:39.955Z,72.26
2018-09-21T11:34:10.129Z,70.45
2018-09-21T11:36:40.080Z,70.03
2018-09-21T11:39:11.268Z,71.21
2018-09-21T11:41:41.394Z,69.92
2018-09-21T11:44:11.301Z,71.39
2018-09-21T11:46:41.250Z,69.63
2018-09-21T11:49:11.301Z,69.95
2018-09-21T11:51:41.416Z,71.86
2018-09-21T11:54:11.448Z,72.45
2018-09-21T11:56:41.579Z,72.28
2018-09-21T11:59:11.390Z,72.03
2018-09-21T12:01:41.375Z,71.75
2018-09-21T12:04:11.563Z,70.95
2018-09-21T12:06:41.376Z,71.00
2018-09-21T12:09:11.112Z,70.44
2018-09-21T12:11:41.404Z,70.44
2018-09-21T12:14:42.728Z,74.20
2018-09-21T12:17:12.660Z,71.35
2018-09-21T12:19:42.612Z,71.59
2018-09-21T12:22:12.418Z,71.61
2018-09-21T12:24:42.334Z,71.54
2018-09-21T12:27:12.227Z,71.70
2018-09-21T12:29:42.182Z,73.77
2018-09-21T12:32:12.065Z,72.61
2018-09-21T12:34:41.951Z,70.63
2018-09-21T12:37:11.863Z,70.16
2018-09-21T12:39:50.749Z,70.61
2018-09-21T12:42:20.903Z,70.13
2018-09-21T12:45:08.008Z,71.19
2018-09-21T12:47:38.024Z,70.81
2018-09-21T12:50:09.323Z,70.36
2018-09-21T12:52:39.327Z,70.12
2018-09-21T12:55:57.666Z,71.89
2018-09-21T12:58:28.131Z,70.74
2018-09-21T13:00:58.506Z,71.01
2018-09-21T13:03:28.738Z,70.29
2018-09-21T13:05:58.921Z,69.04
2018-09-21T13:08:29.231Z,67.69
2018-09-21T13:10:59.457Z,67.88
2018-09-21T13:13:30.370Z,67.23
2018-09-21T13:16:00.724Z,65.78
2018-09-21T13:21:50.341Z,63.59
2018-09-21T13:24:20.532Z,62.54
2018-09-21T13:26:50.942Z,60.59
2018-09-21T13:29:44.572Z,58.18
2018-09-21T13:32:16.720Z,56.84
2018-09-21T13:34:46.897Z,58.11
2018-09-21T13:37:17.043Z,58.31
2018-09-21T13:39:50.624Z,58.43
2018-09-21T13:42:21.274Z,57.63
2018-09-21T13:44:52.520Z,58.19
2018-09-21T14:01:03.283Z,55.49
2018-09-21T14:03:33.288Z,51.97
2018-09-21T14:06:09.930Z,54.07
2018-09-21T14:08:41.044Z,53.29
2018-09-21T14:11:10.807Z,53.93
2018-09-21T14:13:40.693Z,52.54
2018-09-21T14:16:10.882Z,53.35
2018-09-21T14:18:40.704Z,54.66
2018-09-21T14:21:10.826Z,52.86
2018-09-21T14:23:40.641Z,50.54
2018-09-21T14:26:10.496Z,49.78
2018-09-21T14:28:40.379Z,51.36
2018-09-21T14:31:10.440Z,49.99
2018-09-21T14:33:40.829Z,49.32
2018-09-21T14:36:10.760Z,49.77
2018-09-21T14:38:40.990Z,48.20
2018-09-21T14:41:11.400Z,49.93
2018-09-21T14:43:41.757Z,50.43
2018-09-21T14:46:11.825Z,47.79
2018-09-21T14:48:42.302Z,47.86
2018-09-21T14:51:12.678Z,48.72
2018-09-21T14:53:43.091Z,47.88
2018-09-21T14:56:12.959Z,48.14
2018-09-21T14:58:43.255Z,46.68
2018-09-21T15:01:17.738Z,47.74
2018-09-21T15:03:54.597Z,48.81
2018-09-21T15:06:24.699Z,49.21
2018-09-21T15:08:56.457Z,48.22
2018-09-21T15:11:32.026Z,48.01
2018-09-21T15:14:02.279Z,49.29
2018-09-21T15:16:32.253Z,50.16
2018-09-21T15:19:03.211Z,49.87
2018-09-21T15:21:33.641Z,49.78
2018-09-21T15:24:04.203Z,50.51
2018-09-21T15:26:34.131Z,50.20
2018-09-21T15:29:08.916Z,50.80
2018-09-21T15:31:42.399Z,51.02
2018-09-21T15:34:16.008Z,50.51
2018-09-21T15:36:47.072Z,50.41
2018-09-21T15:39:16.976Z,50.18
2018-09-21T15:41:47.874Z,50.98
2018-09-21T15:44:17.915Z,51.66
2018-09-21T15:46:48.757Z,51.68
2018-09-21T15:49:24.507Z,51.20
2018-09-21T15:51:54.577Z,51.45
2018-09-21T15:54:24.690Z,52.56
2018-09-21T15:57:04.106Z,52.47
2018-09-21T15:59:34.202Z,51.40
2018-09-21T16:02:04.840Z,51.43
2018-09-21T16:04:35.532Z,50.45
2018-09-21T16:07:05.596Z,50.76
2018-09-21T16:09:35.647Z,49.68
2018-09-21T16:12:06.130Z,50.73
2018-09-21T16:14:37.148Z,50.09
2018-09-21T16:17:09.561Z,50.47
2018-09-21T16:19:39.703Z,49.17
2018-09-21T16:22:10.775Z,49.79
2018-09-21T16:24:40.706Z,48.00
2018-09-21T16:27:10.581Z,47.95
2018-09-21T16:29:41.593Z,48.07
2018-09-21T16:32:11.452Z,46.93
2018-09-21T16:34:41.615Z,47.28
2018-09-21T16:37:11.524Z,48.97
2018-09-21T16:39:42.284Z,45.52
2018-09-21T16:42:12.507Z,45.17
2018-09-21T16:44:42.580Z,45.58
2018-09-21T16:47:12.344Z,47.21
2018-09-21T16:49:42.487Z,45.14
2018-09-21T16:52:14.214Z,43.51
2018-09-21T16:54:46.527Z,43.78
2018-09-21T16:57:16.470Z,43.38
2018-09-21T16:59:46.815Z,45.07
2018-09-21T17:02:16.841Z,45.24
2018-09-21T17:04:46.966Z,43.54
2018-09-21T17:07:17.332Z,44.09
2018-09-21T17:09:49.684Z,44.05
2018-09-21T17:12:19.905Z,43.02
2018-09-21T17:14:49.691Z,43.51
2018-09-21T17:17:19.670Z,44.66
2018-09-21T17:19:50.021Z,43.56
2018-09-21T17:22:20.039Z,45.07
2018-09-21T17:24:50.060Z,44.74
2018-09-21T17:27:20.275Z,44.60
2018-09-21T17:29:50.665Z,44.36
2018-09-21T17:32:21.136Z,44.51
2018-09-21T17:34:51.066Z,45.45
2018-09-21T17:37:20.848Z,44.35
2018-09-21T17:39:50.667Z,45.44
2018-09-21T17:42:20.452Z,45.01
2018-09-21T17:44:50.467Z,46.73
2018-09-21T17:47:20.213Z,45.01
2018-09-21T17:49:50.164Z,46.83
2018-09-21T17:52:20.245Z,45.80
2018-09-21T17:54:50.277Z,45.56
2018-09-21T17:57:20.240Z,46.79
2018-09-21T17:59:50.007Z,46.39
2018-09-21T18:02:19.821Z,46.56
2018-09-21T18:04:49.870Z,47.37
2018-09-21T18:07:20.520Z,46.86
2018-09-21T18:09:52.962Z,47.00
2018-09-21T18:12:22.986Z,46.87
2018-09-21T18:14:52.919Z,47.03
2018-09-21T18:17:23.137Z,47.46
2018-09-21T18:19:53.210Z,47.74
2018-09-21T18:22:23.246Z,46.78
2018-09-21T18:24:53.081Z,47.10
2018-09-21T18:27:23.098Z,47.17
2018-09-21T18:29:53.102Z,46.92
2018-09-21T18:32:23.129Z,47.09
2018-09-21T18:34:52.944Z,46.34
2018-09-21T18:37:23.753Z,47.17
2018-09-21T18:39:53.719Z,47.97
2018-09-21T18:42:23.800Z,47.03
2018-09-21T18:44:53.640Z,47.26
2018-09-21T18:47:24.451Z,47.65
2018-09-21T18:49:54.483Z,47.80
2018-09-21T18:52:24.516Z,50.47
2018-09-21T18:54:54.312Z,50.52
2018-09-21T18:57:24.256Z,51.95
2018-09-21T18:59:54.356Z,51.21
2018-09-21T19:02:24.390Z,49.75
2018-09-21T19:04:54.591Z,51.00
2018-09-21T19:07:30.219Z,50.92
2018-09-21T19:10:00.567Z,51.03
2018-09-21T19:12:30.474Z,50.81
2018-09-21T19:15:00.477Z,51.73
2018-09-21T19:17:30.423Z,51.42
2018-09-21T19:20:00.227Z,50.79
2018-09-21T19:22:30.039Z,51.00
2018-09-21T19:24:59.931Z,52.03
2018-09-21T19:27:29.946Z,50.19
2018-09-21T19:29:59.746Z,51.51
2018-09-21T19:32:29.563Z,52.10
2018-09-21T19:34:59.451Z,51.60
2018-09-21T19:37:29.490Z,51.31
2018-09-21T19:39:59.362Z,50.97
2018-09-21T19:42:29.197Z,50.74
2018-09-21T19:44:58.944Z,51.17
2018-09-21T19:47:28.750Z,51.27
2018-09-21T19:49:58.597Z,52.15
2018-09-21T19:52:28.699Z,50.39
2018-09-21T19:54:58.719Z,51.41
2018-09-21T19:57:28.620Z,50.88
2018-09-21T19:59:58.720Z,51.23
2018-09-21T20:02:28.656Z,51.23
2018-09-21T20:04:58.744Z,51.44
2018-09-21T20:07:28.511Z,51.43
2018-09-21T20:09:58.560Z,51.84
2018-09-21T20:12:28.531Z,52.47
2018-09-21T20:14:58.368Z,51.95
2018-09-21T20:17:28.119Z,52.84
2018-09-21T20:19:58.171Z,51.80
2018-09-21T20:22:28.167Z,51.51
2018-09-21T20:24:58.047Z,52.11
2018-09-21T20:27:27.991Z,52.05
2018-09-21T20:30:02.933Z,51.20
2018-09-21T20:32:37.852Z,51.91
2018-09-21T20:35:07.565Z,51.56
2018-09-21T20:37:37.496Z,52.01
2018-09-21T20:40:07.239Z,51.57
2018-09-21T20:42:37.168Z,51.65
2018-09-21T20:45:07.934Z,51.22
2018-09-21T20:47:37.759Z,50.46
2018-09-21T20:50:07.775Z,51.60
2018-09-21T20:52:37.727Z,50.95
2018-09-21T20:55:07.607Z,50.98
2018-09-21T20:57:37.434Z,51.80
2018-09-21T21:00:07.485Z,51.79
2018-09-21T21:02:37.238Z,51.25
2018-09-21T21:05:07.124Z,50.84
2018-09-21T21:07:37.510Z,52.26
2018-09-21T21:10:07.563Z,51.53
2018-09-21T21:12:37.552Z,51.32
2018-09-21T21:15:07.548Z,52.52
2018-09-21T21:17:37.626Z,52.73
2018-09-21T21:20:07.564Z,51.74
2018-09-21T21:22:37.444Z,52.09
2018-09-21T21:25:07.483Z,52.02
2018-09-21T21:27:37.640Z,52.81
2018-09-21T21:30:07.492Z,52.37
2018-09-21T21:32:37.507Z,53.14
2018-09-21T21:35:07.391Z,52.96
2018-09-21T21:37:37.419Z,53.54
2018-09-21T21:40:07.437Z,53.56
2018-09-21T21:42:37.401Z,53.40
2018-09-21T21:45:07.226Z,53.92
2018-09-21T21:47:37.255Z,55.39
2018-09-21T21:50:07.301Z,54.84
2018-09-21T21:52:37.280Z,55.06
2018-09-21T21:55:07.309Z,56.05
2018-09-21T21:57:37.193Z,55.28
2018-09-21T22:00:09.329Z,55.90
2018-09-21T22:02:39.371Z,55.04
2018-09-21T22:05:09.231Z,55.87
2018-09-21T22:07:39.456Z,55.11
2018-09-21T22:10:09.630Z,56.33
2018-09-21T22:12:44.518Z,56.40
2018-09-21T22:15:19.789Z,56.14
2018-09-21T22:17:50.443Z,55.73
2018-09-21T22:20:20.358Z,55.48
2018-09-21T22:22:50.146Z,57.33
2018-09-21T22:25:19.932Z,57.04
2018-09-21T22:27:49.713Z,56.52
2018-09-21T22:30:19.734Z,56.46
2018-09-21T22:32:49.563Z,56.54
2018-09-21T22:35:19.503Z,56.37
2018-09-21T22:37:49.300Z,57.35
2018-09-21T22:40:19.311Z,56.82
2018-09-21T22:42:49.187Z,58.05
2018-09-21T22:45:19.028Z,57.92
2018-09-21T22:47:48.889Z,57.93
2018-09-21T22:50:18.931Z,57.57
2018-09-21T22:52:48.886Z,57.82
2018-09-21T22:55:18.722Z,58.02
2018-09-21T22:57:48.704Z,58.11
2018-09-21T23:00:18.568Z,57.49
2018-09-21T23:02:48.587Z,58.41
2018-09-21T23:05:18.603Z,58.84
2018-09-21T23:07:48.505Z,57.81
2018-09-21T23:10:18.535Z,58.52
2018-09-21T23:12:48.580Z,58.37
2018-09-21T23:15:18.440Z,57.68
2018-09-21T23:17:48.406Z,58.35
2018-09-21T23:20:18.259Z,58.22
2018-09-21T23:22:48.127Z,59.78
2018-09-21T23:25:18.007Z,59.93
2018-09-21T23:27:48.071Z,62.14
2018-09-21T23:30:18.161Z,62.62
2018-09-21T23:32:48.229Z,61.30
2018-09-21T23:35:20.073Z,61.21
2018-09-21T23:37:49.904Z,61.55
2018-09-21T23:40:19.749Z,60.94
2018-09-21T23:42:49.791Z,61.58
2018-09-21T23:45:19.708Z,60.21
2018-09-21T23:47:50.296Z,61.16
2018-09-21T23:50:20.323Z,59.63
2018-09-21T23:52:50.298Z,60.30
2018-09-21T23:55:20.083Z,60.07
2018-09-21T23:57:50.120Z,60.16
